createdAt,value
2023-06-15T00:02:17.909Z,101887.13
2023-06-15T00:04:44.564Z,101880.81
2023-06-15T00:07:11.254Z,101884.69
2023-06-15T00:09:38.017Z,101891.31
2023-06-15T00:12:04.789Z,101887.78
2023-06-15T00:14:31.784Z,101892.13
2023-06-15T00:16:58.821Z,101889.69
2023-06-15T00:19:25.583Z,101890.44
2023-06-15T00:21:54.924Z,101886.56
2023-06-15T00:24:21.835Z,101886.50
2023-06-15T00:26:48.479Z,101895.13
2023-06-15T00:29:15.074Z,101893.19
2023-06-15T00:31:41.670Z,101892.38
2023-06-15T00:34:08.179Z,101893.09
2023-06-15T00:36:34.689Z,101882.53
2023-06-15T00:39:01.261Z,101894.63
2023-06-15T00:41:27.970Z,101893.88
2023-06-15T00:43:54.645Z,101891.09
2023-06-15T00:46:21.722Z,101901.97
2023-06-15T00:48:48.477Z,101896.84
2023-06-15T00:51:16.188Z,101895.25
2023-06-15T00:53:44.913Z,101888.03
2023-06-15T00:56:11.798Z,101895.09
2023-06-15T00:58:38.555Z,101896.69
2023-06-15T01:01:05.101Z,101894.72
2023-06-15T01:03:32.374Z,101895.44
2023-06-15T01:06:01.032Z,101895.03
2023-06-15T01:08:28.176Z,101903.28
2023-06-15T01:10:57.340Z,101900.97
2023-06-15T01:13:24.061Z,101905.25
2023-06-15T01:15:56.124Z,101902.00
2023-06-15T01:18:25.337Z,101907.97
2023-06-15T01:20:54.998Z,101906.88
2023-06-15T01:23:41.803Z,101908.09
2023-06-15T01:26:09.675Z,101914.78
2023-06-15T01:28:42.071Z,101907.63
2023-06-15T01:31:10.674Z,101903.66
2023-06-15T01:33:51.005Z,101905.56
2023-06-15T01:36:19.358Z,101905.44
2023-06-15T01:38:49.175Z,101900.59
2023-06-15T01:41:19.545Z,101902.13
2023-06-15T01:43:46.777Z,101899.38
2023-06-15T01:46:13.649Z,101901.00
2023-06-15T01:48:40.975Z,101900.53
2023-06-15T01:51:07.564Z,101898.44
2023-06-15T01:53:34.327Z,101899.53
2023-06-15T01:56:01.516Z,101903.00
2023-06-15T01:58:28.109Z,101906.53
2023-06-15T02:00:54.846Z,101897.88
2023-06-15T02:03:21.431Z,101896.22
2023-06-15T02:05:48.118Z,101904.13
2023-06-15T02:08:14.739Z,101901.34
2023-06-15T02:10:41.477Z,101912.63
2023-06-15T02:13:09.204Z,101907.47
2023-06-15T02:15:37.765Z,101912.34
2023-06-15T02:18:08.455Z,101915.47
2023-06-15T02:20:35.210Z,101914.59
2023-06-15T02:23:03.390Z,101911.94
2023-06-15T02:25:31.589Z,101908.03
2023-06-15T02:27:58.144Z,101916.25
2023-06-15T02:30:26.683Z,101913.50
2023-06-15T02:32:56.680Z,101917.41
2023-06-15T02:35:23.344Z,101918.50
2023-06-15T02:37:49.915Z,101915.38
2023-06-15T02:40:16.461Z,101916.97
2023-06-15T02:42:42.967Z,101916.19
2023-06-15T02:45:10.001Z,101918.91
2023-06-15T02:47:37.194Z,101917.03
2023-06-15T02:50:07.746Z,101921.66
2023-06-15T02:52:34.621Z,101918.41
2023-06-15T02:55:01.711Z,101913.28
2023-06-15T02:57:28.372Z,101920.31
2023-06-15T02:59:55.217Z,101922.56
2023-06-15T03:02:22.508Z,101918.22
2023-06-15T03:04:52.986Z,101922.44
2023-06-15T03:07:21.638Z,101929.00
2023-06-15T03:09:49.198Z,101922.75
2023-06-15T03:12:15.948Z,101926.28
2023-06-15T03:14:45.489Z,101923.53
2023-06-15T03:17:14.100Z,101920.25
2023-06-15T03:19:41.389Z,101921.38
2023-06-15T03:22:10.973Z,101924.28
2023-06-15T03:24:37.793Z,101921.97
2023-06-15T03:27:07.711Z,101920.59
2023-06-15T03:29:38.244Z,101923.28
2023-06-15T03:32:06.876Z,101926.34
2023-06-15T03:34:33.520Z,101924.69
2023-06-15T03:37:00.085Z,101931.03
2023-06-15T03:39:26.679Z,101922.72
2023-06-15T03:41:53.204Z,101927.13
2023-06-15T03:44:20.093Z,101928.66
2023-06-15T03:46:47.203Z,101930.50
2023-06-15T03:49:14.385Z,101929.25
2023-06-15T03:51:41.017Z,101933.00
2023-06-15T03:54:07.912Z,101928.09
2023-06-15T03:56:34.426Z,101929.00
2023-06-15T03:59:00.961Z,101936.84
2023-06-15T04:01:27.546Z,101934.91
2023-06-15T04:03:55.345Z,101933.69
2023-06-15T04:06:26.083Z,101932.41
2023-06-15T04:08:55.078Z,101935.13
2023-06-15T04:11:22.835Z,101936.28
2023-06-15T04:13:49.346Z,101937.44
2023-06-15T04:16:15.897Z,101935.75
2023-06-15T04:18:42.722Z,101936.16
2023-06-15T04:21:09.260Z,101938.84
2023-06-15T04:23:36.207Z,101934.50
2023-06-15T04:26:04.434Z,101935.38
2023-06-15T04:28:31.785Z,101946.03
2023-06-15T04:31:11.964Z,101938.22
2023-06-15T04:33:43.829Z,101941.41
2023-06-15T04:36:13.320Z,101950.06
2023-06-15T04:38:41.350Z,101948.59
2023-06-15T04:41:09.050Z,101951.81
2023-06-15T04:43:36.682Z,101953.41
2023-06-15T04:46:03.359Z,101958.16
2023-06-15T04:48:30.390Z,101960.84
2023-06-15T04:50:57.646Z,101955.03
2023-06-15T04:53:24.315Z,101957.41
2023-06-15T04:55:50.855Z,101962.47
2023-06-15T04:58:18.221Z,101968.72
2023-06-15T05:00:45.208Z,101969.13
2023-06-15T05:03:12.677Z,101967.06
2023-06-15T05:05:39.424Z,101970.28
2023-06-15T05:08:05.991Z,101971.63
2023-06-15T05:10:45.212Z,101977.22
2023-06-15T05:13:12.502Z,101975.41
2023-06-15T05:15:38.989Z,101977.09
2023-06-15T05:18:05.745Z,101984.59
2023-06-15T05:20:32.422Z,101979.97
2023-06-15T05:22:58.952Z,101981.47
2023-06-15T05:25:25.613Z,101975.78
2023-06-15T05:27:52.294Z,101973.69
2023-06-15T05:30:19.011Z,101971.34
2023-06-15T05:32:45.547Z,101980.09
2023-06-15T05:35:12.212Z,101975.44
2023-06-15T05:37:39.158Z,101972.69
2023-06-15T05:40:06.397Z,101978.78
2023-06-15T05:42:33.204Z,101974.94
2023-06-15T05:44:59.739Z,101986.09
2023-06-15T05:47:26.408Z,101983.00
2023-06-15T05:49:53.021Z,101977.84
2023-06-15T05:52:20.263Z,101978.69
2023-06-15T05:54:47.603Z,101982.81
2023-06-15T05:57:14.568Z,101982.41
2023-06-15T05:59:41.236Z,101982.91
2023-06-15T06:02:09.123Z,101986.84
2023-06-15T06:04:35.851Z,101988.91
2023-06-15T06:07:07.445Z,101985.75
2023-06-15T06:09:34.934Z,101989.34
2023-06-15T06:12:02.295Z,101986.28
2023-06-15T06:14:29.359Z,101982.88
2023-06-15T06:16:56.930Z,101984.50
2023-06-15T06:19:24.532Z,101984.16
2023-06-15T06:21:51.214Z,101978.66
2023-06-15T06:24:21.176Z,101983.78
2023-06-15T06:26:49.695Z,101986.28
2023-06-15T06:29:16.333Z,101984.34
2023-06-15T06:31:44.236Z,101987.94
2023-06-15T06:34:11.867Z,101986.41
2023-06-15T06:36:38.684Z,101978.13
2023-06-15T06:39:05.262Z,101979.03
2023-06-15T06:41:32.011Z,101980.22
2023-06-15T06:43:58.541Z,101981.44
2023-06-15T06:46:25.136Z,101982.69
2023-06-15T06:48:51.828Z,101987.03
2023-06-15T06:51:18.645Z,101984.28
2023-06-15T06:53:45.627Z,101986.66
2023-06-15T06:56:12.233Z,101978.38
2023-06-15T06:58:38.886Z,101984.34
2023-06-15T07:01:05.548Z,101985.91
2023-06-15T07:03:32.334Z,101986.69
2023-06-15T07:05:59.923Z,101996.97
2023-06-15T07:08:26.500Z,101984.72
2023-06-15T07:10:52.972Z,101991.03
2023-06-15T07:13:19.449Z,101992.13
2023-06-15T07:15:45.976Z,101991.72
2023-06-15T07:18:15.549Z,101998.00
2023-06-15T07:20:42.594Z,101991.69
2023-06-15T07:23:09.214Z,101993.63
2023-06-15T07:25:35.809Z,101992.00
2023-06-15T07:28:03.103Z,101994.69
2023-06-15T07:30:30.656Z,101981.97
2023-06-15T07:32:57.386Z,101991.06
2023-06-15T07:35:24.034Z,101992.66
2023-06-15T07:37:50.555Z,101985.84
2023-06-15T07:40:17.661Z,101988.97
2023-06-15T07:42:45.073Z,101986.91
2023-06-15T07:45:11.664Z,101983.63
2023-06-15T07:47:38.650Z,101981.03
2023-06-15T07:50:05.726Z,101995.91
2023-06-15T07:52:32.295Z,101986.41
2023-06-15T07:54:58.797Z,101985.25
2023-06-15T07:57:25.436Z,101983.25
2023-06-15T07:59:51.921Z,101986.28
2023-06-15T08:02:18.516Z,101990.63
2023-06-15T08:04:45.134Z,101992.13
2023-06-15T08:07:12.075Z,101984.34
2023-06-15T08:09:38.657Z,101986.13
2023-06-15T08:12:05.756Z,101979.28
2023-06-15T08:14:32.274Z,101979.16
2023-06-15T08:16:58.792Z,101987.13
2023-06-15T08:19:25.364Z,101980.91
2023-06-15T08:21:51.917Z,101979.59
2023-06-15T08:24:18.427Z,101977.34
2023-06-15T08:26:45.689Z,101976.03
2023-06-15T08:31:43.857Z,101977.69
2023-06-15T08:34:11.171Z,101981.69
2023-06-15T08:36:38.352Z,101978.84
2023-06-15T08:39:04.965Z,101985.63
2023-06-15T08:41:31.543Z,101994.84
2023-06-15T08:43:58.507Z,101981.63
2023-06-15T08:46:25.477Z,101979.53
2023-06-15T08:48:53.865Z,101985.13
2023-06-15T08:51:22.444Z,101980.28
2023-06-15T08:53:49.420Z,101979.50
2023-06-15T08:56:16.221Z,101976.78
2023-06-15T08:58:53.006Z,101976.66
2023-06-15T09:01:23.529Z,101965.16
2023-06-15T09:03:54.721Z,101979.47
2023-06-15T09:06:22.752Z,101980.50
2023-06-15T09:08:49.819Z,101971.78
2023-06-15T09:11:17.912Z,101971.38
2023-06-15T09:13:44.775Z,101970.25
2023-06-15T09:16:11.913Z,101974.63
2023-06-15T09:18:54.097Z,101972.28
2023-06-15T09:21:24.576Z,101977.81
2023-06-15T09:23:51.357Z,101981.19
2023-06-15T09:26:24.968Z,101972.50
2023-06-15T09:28:55.754Z,101971.81
2023-06-15T09:31:32.840Z,101978.13
2023-06-15T09:34:10.628Z,101967.44
2023-06-15T09:36:46.209Z,101968.19
2023-06-15T09:39:14.872Z,101962.72
2023-06-15T09:41:55.447Z,101966.19
2023-06-15T09:44:23.484Z,101964.28
2023-06-15T09:46:55.451Z,101968.38
2023-06-15T09:49:29.269Z,101961.75
2023-06-15T09:51:56.830Z,101964.16
2023-06-15T09:54:29.311Z,101961.81
2023-06-15T09:56:56.890Z,101962.94
2023-06-15T09:59:23.462Z,101961.13
2023-06-15T10:01:52.152Z,101958.78
2023-06-15T10:04:22.746Z,101958.56
2023-06-15T10:06:52.533Z,101951.63
2023-06-15T10:09:29.974Z,101954.97
2023-06-15T10:12:02.493Z,101951.34
2023-06-15T10:14:55.474Z,101951.00
2023-06-15T10:17:32.262Z,101960.06
2023-06-15T10:20:10.132Z,101959.19
2023-06-15T10:22:57.491Z,101952.50
2023-06-15T10:25:25.852Z,101953.56
2023-06-15T10:27:52.673Z,101957.81
2023-06-15T10:30:32.518Z,101957.03
2023-06-15T10:33:05.318Z,101951.88
2023-06-15T10:35:47.212Z,101949.00
2023-06-15T10:38:20.806Z,101953.44
2023-06-15T10:40:49.354Z,101957.06
2023-06-15T10:43:20.036Z,101959.00
2023-06-15T10:45:47.976Z,101954.50
2023-06-15T10:48:28.872Z,101955.13
2023-06-15T10:51:07.238Z,101946.41
2023-06-15T10:53:40.977Z,101948.03
2023-06-15T10:56:14.822Z,101960.41
2023-06-15T10:59:10.645Z,101949.81
2023-06-15T11:01:37.345Z,101950.81
2023-06-15T11:04:30.837Z,101949.72
2023-06-15T11:07:02.199Z,101947.44
2023-06-15T11:09:35.579Z,101941.75
2023-06-15T11:12:03.113Z,101944.84
2023-06-15T11:14:32.634Z,101939.13
2023-06-15T11:17:04.638Z,101941.09
2023-06-15T11:19:31.471Z,101935.03
2023-06-15T11:22:06.064Z,101945.63
2023-06-15T11:24:38.636Z,101939.06
2023-06-15T11:27:06.049Z,101934.28
2023-06-15T11:29:36.799Z,101942.06
2023-06-15T11:32:04.670Z,101938.44
2023-06-15T11:34:35.131Z,101936.84
2023-06-15T11:37:02.185Z,101926.34
2023-06-15T11:39:30.395Z,101923.25
2023-06-15T11:41:58.991Z,101919.66
2023-06-15T11:44:28.223Z,101926.81
2023-06-15T11:46:59.881Z,101921.56
2023-06-15T11:49:35.071Z,101928.66
2023-06-15T11:52:01.708Z,101915.03
2023-06-15T11:54:44.994Z,101923.06
2023-06-15T11:57:16.906Z,101915.72
2023-06-15T11:59:43.471Z,101913.28
2023-06-15T12:02:12.389Z,101914.88
2023-06-15T12:04:39.149Z,101923.81
2023-06-15T12:07:06.441Z,101914.06
2023-06-15T12:09:33.563Z,101917.13
2023-06-15T12:12:01.283Z,101909.47
2023-06-15T12:14:27.945Z,101904.59
2023-06-15T12:16:54.648Z,101911.16
2023-06-15T12:19:21.916Z,101905.69
2023-06-15T12:21:48.938Z,101904.84
2023-06-15T12:24:20.562Z,101898.47
2023-06-15T12:26:52.717Z,101893.75
2023-06-15T12:29:21.377Z,101889.41
2023-06-15T12:31:49.695Z,101902.47
2023-06-15T12:34:25.355Z,101898.81
2023-06-15T12:36:56.554Z,101896.81
2023-06-15T12:39:28.257Z,101901.50
2023-06-15T12:41:59.501Z,101900.91
2023-06-15T12:44:26.004Z,101888.47
2023-06-15T12:46:52.533Z,101893.31
2023-06-15T12:49:19.057Z,101886.34
2023-06-15T12:51:47.804Z,101884.97
2023-06-15T12:54:14.430Z,101886.63
2023-06-15T12:56:41.324Z,101873.75
2023-06-15T12:59:07.990Z,101877.66
2023-06-15T13:01:34.926Z,101881.13
2023-06-15T13:04:02.178Z,101867.53
2023-06-15T13:06:28.930Z,101877.13
2023-06-15T13:08:55.465Z,101869.34
2023-06-15T13:11:22.165Z,101875.84
2023-06-15T13:13:48.814Z,101879.47
2023-06-15T13:16:15.477Z,101870.25
2023-06-15T13:18:42.087Z,101865.81
2023-06-15T13:21:08.783Z,101869.97
2023-06-15T13:23:35.376Z,101871.41
2023-06-15T13:26:01.884Z,101882.16
2023-06-15T13:28:28.575Z,101875.88
2023-06-15T13:30:55.324Z,101867.47
2023-06-15T13:33:22.174Z,101874.38
2023-06-15T13:35:48.793Z,101873.59
2023-06-15T13:38:15.387Z,101868.97
2023-06-15T13:40:41.944Z,101864.91
2023-06-15T13:43:09.112Z,101861.22
2023-06-15T13:45:35.918Z,101871.22
2023-06-15T13:48:02.471Z,101873.69
2023-06-15T13:50:29.176Z,101858.03
2023-06-15T13:52:55.710Z,101863.13
2023-06-15T13:55:22.470Z,101857.06
2023-06-15T13:57:49.108Z,101855.28
2023-06-15T14:00:17.409Z,101851.28
2023-06-15T14:02:46.054Z,101859.00
2023-06-15T14:05:14.401Z,101859.75
2023-06-15T14:07:41.720Z,101860.28
2023-06-15T14:10:08.970Z,101853.72
2023-06-15T14:12:35.747Z,101854.72
2023-06-15T14:15:03.270Z,101855.41
2023-06-15T14:17:29.854Z,101856.84
2023-06-15T14:19:56.452Z,101855.47
2023-06-15T14:22:23.099Z,101859.91
2023-06-15T14:24:49.619Z,101851.72
2023-06-15T14:27:16.160Z,101856.31
2023-06-15T14:29:46.806Z,101850.91
2023-06-15T14:32:16.276Z,101856.63
2023-06-15T14:34:43.975Z,101849.50
2023-06-15T14:37:11.521Z,101846.09
2023-06-15T14:39:38.201Z,101851.47
2023-06-15T14:42:04.968Z,101843.69
2023-06-15T14:44:31.669Z,101848.25
2023-06-15T14:46:58.171Z,101841.56
2023-06-15T14:49:24.706Z,101840.53
2023-06-15T14:51:51.577Z,101845.47
2023-06-15T14:54:18.193Z,101843.13
2023-06-15T14:56:44.875Z,101847.16
2023-06-15T14:59:11.526Z,101846.69
2023-06-15T15:01:39.686Z,101845.91
2023-06-15T15:04:06.607Z,101850.84
2023-06-15T15:06:33.226Z,101852.09
2023-06-15T15:08:59.854Z,101842.34
2023-06-15T15:11:27.108Z,101845.59
2023-06-15T15:13:53.744Z,101841.13
2023-06-15T15:16:21.288Z,101839.69
2023-06-15T15:18:48.057Z,101834.63
2023-06-15T15:21:14.682Z,101840.19
2023-06-15T15:23:42.299Z,101834.50
2023-06-15T15:26:09.087Z,101832.06
2023-06-15T15:28:35.781Z,101828.72
2023-06-15T15:31:02.575Z,101827.69
2023-06-15T15:33:29.121Z,101822.44
2023-06-15T15:35:55.754Z,101830.03
2023-06-15T15:38:22.556Z,101832.38
2023-06-15T15:40:49.153Z,101831.16
2023-06-15T15:43:18.130Z,101827.72
2023-06-15T15:45:45.164Z,101831.59
2023-06-15T15:48:12.086Z,101831.38
2023-06-15T15:50:39.143Z,101828.38
2023-06-15T15:53:06.046Z,101829.34
2023-06-15T15:55:32.648Z,101826.69
2023-06-15T15:58:00.159Z,101824.78
2023-06-15T16:00:27.640Z,101819.66
2023-06-15T16:02:54.317Z,101824.44
2023-06-15T16:05:20.950Z,101817.16
2023-06-15T16:07:47.626Z,101826.72
2023-06-15T16:10:14.320Z,101822.53
2023-06-15T16:12:41.309Z,101813.31
2023-06-15T16:15:09.936Z,101819.06
2023-06-15T16:17:36.946Z,101812.75
2023-06-15T16:20:05.547Z,101818.88
2023-06-15T16:22:33.462Z,101814.53
2023-06-15T16:25:01.080Z,101807.38
2023-06-15T16:27:28.337Z,101810.16
2023-06-15T16:29:54.937Z,101814.53
2023-06-15T16:32:21.871Z,101808.56
2023-06-15T16:34:48.490Z,101807.84
2023-06-15T16:37:15.227Z,101798.69
2023-06-15T16:39:49.882Z,101803.59
2023-06-15T16:42:18.585Z,101796.41
2023-06-15T16:44:46.202Z,101793.66
2023-06-15T16:47:12.844Z,101795.84
2023-06-15T16:49:50.106Z,101797.09
2023-06-15T16:52:18.191Z,101800.75
2023-06-15T16:54:46.104Z,101799.25
2023-06-15T16:57:15.010Z,101800.34
2023-06-15T16:59:42.306Z,101813.25
2023-06-15T17:02:14.560Z,101821.38
2023-06-15T17:04:41.510Z,101815.13
2023-06-15T17:07:09.065Z,101812.34
2023-06-15T17:09:38.814Z,101809.06
2023-06-15T17:12:05.913Z,101816.13
2023-06-15T17:14:32.481Z,101815.31
2023-06-15T17:16:59.051Z,101820.28
2023-06-15T17:19:25.701Z,101819.81
2023-06-15T17:21:52.363Z,101823.56
2023-06-15T17:24:19.280Z,101824.88
2023-06-15T17:26:46.346Z,101822.53
2023-06-15T17:29:12.976Z,101817.03
2023-06-15T17:31:39.579Z,101823.88
2023-06-15T17:34:07.568Z,101823.41
2023-06-15T17:36:35.242Z,101820.50
2023-06-15T17:39:02.556Z,101822.31
2023-06-15T17:41:29.099Z,101825.69
2023-06-15T17:43:55.980Z,101822.16
2023-06-15T17:46:22.630Z,101822.53
2023-06-15T17:48:49.275Z,101823.50
2023-06-15T17:51:16.521Z,101826.91
2023-06-15T17:53:45.887Z,101833.09
2023-06-15T17:56:13.278Z,101822.69
2023-06-15T17:58:41.220Z,101833.75
2023-06-15T18:01:11.437Z,101836.91
2023-06-15T18:03:40.902Z,101835.44
2023-06-15T18:06:08.612Z,101837.03
2023-06-15T18:08:35.577Z,101836.69
2023-06-15T18:11:02.145Z,101837.41
2023-06-15T18:13:28.793Z,101849.38
2023-06-15T18:15:55.636Z,101842.31
2023-06-15T18:18:23.886Z,101844.81
2023-06-15T18:20:51.149Z,101850.00
2023-06-15T18:23:18.069Z,101852.31
2023-06-15T18:25:45.087Z,101843.53
2023-06-15T18:28:11.638Z,101843.31
2023-06-15T18:30:38.188Z,101851.38
2023-06-15T18:33:04.904Z,101843.91
2023-06-15T18:35:31.591Z,101852.25
2023-06-15T18:37:59.786Z,101853.50
2023-06-15T18:40:27.276Z,101851.13
2023-06-15T18:42:53.896Z,101848.66
2023-06-15T18:45:21.625Z,101851.75
2023-06-15T18:47:48.514Z,101860.53
2023-06-15T18:50:15.505Z,101860.72
2023-06-15T18:52:42.342Z,101860.16
2023-06-15T18:55:09.319Z,101860.38
2023-06-15T18:57:35.946Z,101852.72
2023-06-15T19:00:04.026Z,101859.66
2023-06-15T19:02:30.745Z,101859.72
2023-06-15T19:04:57.407Z,101866.28
2023-06-15T19:07:23.979Z,101868.88
2023-06-15T19:09:50.768Z,101872.06
2023-06-15T19:12:17.286Z,101859.06
2023-06-15T19:14:43.973Z,101855.44
2023-06-15T19:17:11.894Z,101857.00
2023-06-15T19:19:39.645Z,101860.84
2023-06-15T19:22:06.630Z,101858.81
2023-06-15T19:24:35.133Z,101858.97
2023-06-15T19:27:02.050Z,101866.16
2023-06-15T19:29:28.774Z,101865.41
2023-06-15T19:31:55.380Z,101872.31
2023-06-15T19:34:22.210Z,101870.81
2023-06-15T19:36:56.328Z,101874.38
2023-06-15T19:39:23.325Z,101866.81
2023-06-15T19:41:51.729Z,101869.78
2023-06-15T19:44:19.172Z,101874.72
2023-06-15T19:46:46.314Z,101877.06
2023-06-15T19:49:12.955Z,101878.09
2023-06-15T19:51:39.532Z,101877.09
2023-06-15T19:54:06.122Z,101878.31
2023-06-15T19:56:32.737Z,101886.81
2023-06-15T19:59:02.561Z,101889.28
2023-06-15T20:01:30.071Z,101882.72
2023-06-15T20:03:58.449Z,101884.88
2023-06-15T20:06:25.167Z,101882.59
2023-06-15T20:08:51.782Z,101890.56
2023-06-15T20:11:18.575Z,101887.22
2023-06-15T20:13:45.144Z,101894.84
2023-06-15T20:16:14.842Z,101886.53
2023-06-15T20:18:44.720Z,101899.19
2023-06-15T20:21:11.290Z,101884.13
2023-06-15T20:23:38.094Z,101894.41
2023-06-15T20:26:04.693Z,101898.88
2023-06-15T20:28:33.757Z,101905.31
2023-06-15T20:31:04.683Z,101899.81
2023-06-15T20:33:33.335Z,101900.28
2023-06-15T20:36:00.370Z,101901.19
2023-06-15T20:38:31.286Z,101900.47
2023-06-15T20:40:58.982Z,101896.09
2023-06-15T20:43:27.177Z,101896.47
2023-06-15T20:45:53.805Z,101900.53
2023-06-15T20:48:20.345Z,101897.41
2023-06-15T20:50:47.808Z,101904.56
2023-06-15T20:53:14.656Z,101895.47
2023-06-15T20:55:41.796Z,101901.34
2023-06-15T20:58:09.052Z,101906.50
2023-06-15T21:00:37.330Z,101902.66
2023-06-15T21:03:04.658Z,101906.66
2023-06-15T21:05:32.069Z,101908.66
2023-06-15T21:07:59.141Z,101907.09
2023-06-15T21:10:25.989Z,101905.13
2023-06-15T21:12:52.744Z,101908.28
2023-06-15T21:15:20.423Z,101898.78
2023-06-15T21:17:47.021Z,101901.59
2023-06-15T21:20:14.685Z,101903.56
2023-06-15T21:22:42.290Z,101907.16
2023-06-15T21:25:09.402Z,101900.84
2023-06-15T21:27:36.320Z,101908.00
2023-06-15T21:30:03.825Z,101898.53
2023-06-15T21:32:30.720Z,101915.09
2023-06-15T21:34:57.363Z,101916.28
2023-06-15T21:37:23.994Z,101908.81
2023-06-15T21:39:50.943Z,101915.94
2023-06-15T21:42:19.644Z,101917.16
2023-06-15T21:44:49.560Z,101912.84
2023-06-15T21:47:19.666Z,101915.22
2023-06-15T21:49:46.330Z,101912.47
2023-06-15T21:52:16.162Z,101918.41
2023-06-15T21:54:44.549Z,101914.06
2023-06-15T21:57:14.779Z,101910.50
2023-06-15T21:59:43.375Z,101915.66
2023-06-15T22:02:10.512Z,101916.81
2023-06-15T22:04:37.135Z,101913.28
2023-06-15T22:07:04.324Z,101914.88
2023-06-15T22:09:31.471Z,101906.59
2023-06-15T22:11:58.122Z,101910.94
2023-06-15T22:14:25.340Z,101913.69
2023-06-15T22:16:53.371Z,101908.16
2023-06-15T22:19:20.225Z,101911.72
2023-06-15T22:21:46.989Z,101918.81
2023-06-15T22:24:13.629Z,101915.25
2023-06-15T22:26:44.718Z,101914.47
2023-06-15T22:29:20.603Z,101912.13
2023-06-15T22:31:48.539Z,101919.97
2023-06-15T22:34:18.447Z,101918.78
2023-06-15T22:36:45.511Z,101915.97
2023-06-15T22:39:12.298Z,101922.69
2023-06-15T22:41:39.518Z,101913.59
2023-06-15T22:44:06.859Z,101927.00
2023-06-15T22:46:34.040Z,101924.22
2023-06-15T22:49:00.802Z,101921.84
2023-06-15T22:51:30.395Z,101926.94
2023-06-15T22:54:00.281Z,101922.97
2023-06-15T22:56:27.726Z,101918.22
2023-06-15T22:58:55.895Z,101919.41
2023-06-15T23:01:23.707Z,101911.88
2023-06-15T23:03:51.008Z,101915.03
2023-06-15T23:06:20.212Z,101913.47
2023-06-15T23:08:48.872Z,101911.84
2023-06-15T23:11:18.509Z,101921.69
2023-06-15T23:13:51.835Z,101918.16
2023-06-15T23:16:19.090Z,101913.38
2023-06-15T23:18:46.348Z,101918.81
2023-06-15T23:21:14.362Z,101923.09
2023-06-15T23:23:41.512Z,101921.53
2023-06-15T23:26:16.155Z,101921.97
2023-06-15T23:28:44.253Z,101917.19
2023-06-15T23:31:10.894Z,101916.75
2023-06-15T23:33:37.471Z,101917.94
2023-06-15T23:36:04.930Z,101921.81
2023-06-15T23:38:31.854Z,101915.06
2023-06-15T23:40:58.629Z,101916.69
2023-06-15T23:43:25.166Z,101907.16
2023-06-15T23:45:51.972Z,101917.34
2023-06-15T23:48:18.709Z,101918.13
2023-06-15T23:50:45.273Z,101909.81
2023-06-15T23:53:12.990Z,101915.34
2023-06-15T23:55:43.934Z,101908.63
2023-06-15T23:58:13.775Z,101906.28
